createdAt,value
2022-12-19T00:00:39.434Z,71.37
2022-12-19T00:03:46.672Z,70.18
2022-12-19T00:06:49.213Z,71.10
2022-12-19T00:09:52.134Z,75.85
2022-12-19T00:12:54.584Z,70.60
2022-12-19T00:16:04.552Z,74.23
2022-12-19T00:19:07.773Z,66.97
2022-12-19T00:22:11.360Z,67.03
2022-12-19T00:25:14.072Z,61.42
2022-12-19T00:28:17.207Z,71.85
2022-12-19T00:31:23.153Z,64.97
2022-12-19T00:34:26.236Z,67.57
2022-12-19T00:37:29.083Z,69.05
2022-12-19T00:40:32.118Z,68.93
2022-12-19T00:43:35.474Z,72.30
2022-12-19T00:46:38.942Z,65.47
2022-12-19T00:49:41.424Z,69.53
2022-12-19T00:52:45.208Z,71.37
2022-12-19T00:55:47.723Z,66.72
2022-12-19T00:58:51.193Z,69.22
2022-12-19T01:01:54.007Z,63.20
2022-12-19T01:04:56.950Z,70.00
2022-12-19T01:07:59.404Z,67.37
2022-12-19T01:11:05.301Z,66.35
2022-12-19T01:14:10.380Z,72.35
2022-12-19T01:17:14.629Z,69.67
2022-12-19T01:20:21.423Z,58.70
2022-12-19T01:23:32.831Z,76.53
2022-12-19T01:26:35.421Z,65.43
2022-12-19T01:29:52.492Z,63.47
2022-12-19T01:32:56.752Z,67.50
2022-12-19T01:36:07.733Z,69.25
2022-12-19T01:39:10.713Z,58.60
2022-12-19T01:42:21.143Z,54.67
2022-12-19T01:45:34.085Z,66.72
2022-12-19T01:48:43.961Z,57.53
2022-12-19T01:51:48.479Z,60.85
2022-12-19T01:54:51.434Z,71.80
2022-12-19T01:57:54.744Z,67.97
2022-12-19T02:00:58.216Z,71.05
2022-12-19T02:04:02.050Z,62.50
2022-12-19T02:07:15.541Z,61.60
2022-12-19T02:10:19.186Z,59.97
2022-12-19T02:13:23.111Z,59.75
2022-12-19T02:16:39.221Z,76.60
2022-12-19T02:20:16.112Z,60.73
2022-12-19T02:23:34.645Z,61.15
2022-12-19T02:27:14.127Z,65.32
2022-12-19T02:30:36.546Z,70.25
2022-12-19T02:33:56.241Z,62.83
2022-12-19T02:37:10.598Z,63.93
2022-12-19T02:40:16.790Z,63.58
2022-12-19T02:43:20.889Z,64.18
2022-12-19T02:46:25.346Z,58.67
2022-12-19T02:49:31.266Z,57.70
2022-12-19T02:52:34.355Z,67.90
2022-12-19T02:56:14.868Z,65.68
2022-12-19T02:59:43.906Z,63.78
2022-12-19T03:03:22.254Z,54.92
2022-12-19T03:06:43.390Z,71.07
2022-12-19T03:10:08.640Z,54.63
2022-12-19T03:13:33.907Z,58.80
2022-12-19T03:16:38.145Z,58.50
2022-12-19T03:19:41.556Z,48.15
2022-12-19T03:22:44.412Z,54.22
2022-12-19T03:25:50.132Z,60.13
2022-12-19T03:29:09.786Z,60.65
2022-12-19T03:32:16.181Z,61.00
2022-12-19T03:35:22.805Z,61.10
2022-12-19T03:38:26.551Z,63.47
2022-12-19T03:41:48.542Z,49.43
2022-12-19T03:44:51.693Z,65.10
2022-12-19T03:48:01.075Z,52.70
2022-12-19T03:51:11.644Z,61.30
2022-12-19T03:54:19.147Z,56.67
2022-12-19T03:57:28.627Z,60.63
2022-12-19T04:00:34.787Z,53.08
2022-12-19T04:03:37.664Z,58.85
2022-12-19T04:06:42.577Z,55.38
2022-12-19T04:09:45.918Z,62.33
2022-12-19T04:13:02.337Z,55.87
2022-12-19T04:16:22.679Z,55.08
2022-12-19T04:19:30.635Z,55.50
2022-12-19T04:22:47.249Z,49.28
2022-12-19T04:25:51.879Z,54.15
2022-12-19T04:28:56.791Z,62.70
2022-12-19T04:32:00.253Z,54.13
2022-12-19T04:35:03.310Z,51.08
2022-12-19T04:38:06.560Z,47.25
2022-12-19T04:41:11.171Z,59.63
2022-12-19T04:44:13.660Z,55.73
2022-12-19T04:47:16.438Z,57.50
2022-12-19T04:50:19.201Z,48.67
2022-12-19T04:53:21.937Z,51.63
2022-12-19T04:56:24.523Z,53.85
2022-12-19T04:59:27.703Z,57.73
2022-12-19T05:02:30.490Z,61.50
2022-12-19T05:05:33.350Z,56.03
2022-12-19T05:08:38.103Z,58.83
2022-12-19T05:11:41.168Z,62.97
2022-12-19T05:14:43.621Z,56.47
2022-12-19T05:17:46.493Z,49.38
2022-12-19T05:20:49.356Z,50.60
2022-12-19T05:23:52.320Z,50.65
2022-12-19T05:26:54.746Z,50.50
2022-12-19T05:29:57.590Z,47.73
2022-12-19T05:33:00.378Z,48.25
2022-12-19T05:36:03.944Z,51.72
2022-12-19T05:39:06.774Z,51.60
2022-12-19T05:42:12.338Z,53.22
2022-12-19T05:45:15.239Z,50.97
2022-12-19T05:48:18.139Z,47.28
2022-12-19T05:51:21.255Z,42.83
2022-12-19T05:54:24.132Z,42.78
2022-12-19T05:57:26.647Z,47.62
2022-12-19T06:00:33.832Z,52.80
2022-12-19T06:03:37.022Z,51.42
2022-12-19T06:06:39.689Z,40.95
2022-12-19T06:09:42.958Z,49.63
2022-12-19T06:12:45.893Z,40.05
2022-12-19T06:15:48.786Z,51.90
2022-12-19T06:18:51.494Z,37.72
2022-12-19T06:21:54.283Z,47.13
2022-12-19T06:24:57.250Z,47.67
2022-12-19T06:28:00.083Z,38.97
2022-12-19T06:31:04.794Z,41.00
2022-12-19T06:34:10.238Z,40.58
2022-12-19T06:37:12.810Z,30.50
2022-12-19T06:40:35.785Z,34.40
2022-12-19T06:43:38.478Z,32.05
2022-12-19T06:46:42.184Z,27.50
2022-12-19T06:49:45.411Z,36.00
2022-12-19T06:52:48.280Z,30.90
2022-12-19T06:55:52.665Z,47.30
2022-12-19T06:58:55.502Z,38.50
2022-12-19T07:02:00.665Z,37.20
2022-12-19T07:05:05.670Z,39.90
2022-12-19T07:08:08.703Z,34.35
2022-12-19T07:11:11.823Z,35.58
2022-12-19T07:14:14.336Z,36.75
2022-12-19T07:17:18.179Z,39.03
2022-12-19T07:20:21.654Z,35.60
2022-12-19T07:23:24.588Z,34.65
2022-12-19T07:26:27.577Z,39.47
2022-12-19T07:29:30.512Z,40.55
2022-12-19T07:32:33.246Z,31.40
2022-12-19T07:35:36.109Z,32.90
2022-12-19T07:38:38.805Z,36.80
2022-12-19T07:41:41.698Z,30.98
2022-12-19T07:44:44.500Z,30.07
2022-12-19T07:47:47.983Z,34.13
2022-12-19T07:50:50.687Z,27.90
2022-12-19T07:53:53.556Z,26.75
2022-12-19T07:56:56.434Z,25.60
2022-12-19T07:59:59.388Z,34.33
2022-12-19T08:03:02.534Z,26.40
2022-12-19T08:06:06.841Z,30.75
2022-12-19T08:09:09.470Z,29.80
2022-12-19T08:12:12.891Z,29.23
2022-12-19T08:15:15.352Z,30.53
2022-12-19T08:18:18.247Z,29.80
2022-12-19T08:21:20.727Z,31.33
2022-12-19T08:24:23.569Z,27.58
2022-12-19T08:27:26.749Z,32.88
2022-12-19T08:30:29.881Z,25.87
2022-12-19T08:33:32.429Z,28.60
2022-12-19T08:36:35.291Z,28.35
2022-12-19T08:39:37.788Z,28.25
2022-12-19T08:42:40.661Z,30.27
2022-12-19T08:45:43.145Z,28.20
2022-12-19T08:48:46.766Z,27.87
2022-12-19T08:51:49.758Z,32.00
2022-12-19T08:54:52.572Z,29.10
2022-12-19T08:57:55.061Z,29.37
2022-12-19T09:01:05.491Z,27.33
2022-12-19T09:05:52.004Z,29.40
2022-12-19T09:07:31.259Z,27.90
2022-12-19T09:10:37.622Z,36.92
2022-12-19T09:13:41.879Z,26.20
2022-12-19T09:16:44.352Z,34.50
2022-12-19T09:19:47.747Z,32.13
2022-12-19T09:22:50.933Z,34.75
2022-12-19T09:25:54.944Z,28.15
2022-12-19T09:28:57.594Z,25.95
2022-12-19T09:32:00.428Z,27.63
2022-12-19T09:35:02.985Z,30.30
2022-12-19T09:38:05.847Z,29.33
2022-12-19T09:41:20.745Z,28.55
2022-12-19T09:44:45.179Z,32.75
2022-12-19T09:47:49.023Z,27.10
2022-12-19T09:50:54.762Z,29.48
2022-12-19T09:54:09.354Z,33.97
2022-12-19T09:57:22.395Z,31.67
2022-12-19T10:00:32.881Z,32.22
2022-12-19T10:03:42.379Z,35.67
2022-12-19T10:07:11.419Z,31.90
2022-12-19T10:12:34.537Z,30.42
2022-12-19T10:13:55.013Z,27.33
2022-12-19T10:17:24.478Z,34.42
2022-12-19T10:20:31.105Z,34.57
2022-12-19T10:23:45.936Z,32.65
2022-12-19T10:26:52.177Z,35.65
2022-12-19T10:30:10.927Z,33.35
2022-12-19T10:33:27.147Z,31.02
2022-12-19T10:37:04.599Z,37.93
2022-12-19T10:40:37.197Z,32.90
2022-12-19T10:44:02.638Z,30.85
2022-12-19T10:47:05.250Z,35.63
2022-12-19T10:50:23.516Z,33.30
2022-12-19T10:53:28.881Z,36.03
2022-12-19T10:56:37.508Z,33.45
2022-12-19T10:59:56.456Z,31.83
2022-12-19T11:03:16.698Z,34.33
2022-12-19T11:06:42.579Z,34.00
2022-12-19T11:09:49.630Z,26.67
2022-12-19T11:18:26.395Z,33.05
2022-12-19T11:22:24.727Z,28.92
2022-12-19T11:29:26.910Z,33.85
2022-12-19T11:29:38.527Z,29.70
2022-12-19T11:30:41.740Z,28.30
2022-12-19T11:34:35.687Z,26.80
2022-12-19T11:37:46.117Z,21.98
2022-12-19T11:40:53.521Z,26.45
2022-12-19T11:44:03.365Z,32.47
2022-12-19T11:47:23.910Z,32.22
2022-12-19T11:50:30.153Z,30.33
2022-12-19T11:53:44.826Z,25.77
2022-12-19T11:56:47.658Z,27.30
2022-12-19T11:59:52.619Z,25.90
2022-12-19T12:03:09.410Z,27.50
2022-12-19T12:06:15.434Z,33.85
2022-12-19T12:13:01.618Z,33.20
2022-12-19T12:23:13.230Z,30.92
2022-12-19T12:30:19.047Z,28.27
2022-12-19T12:31:17.331Z,26.12
2022-12-19T12:31:38.743Z,30.10
2022-12-19T12:31:41.052Z,31.42
2022-12-19T12:31:49.209Z,28.05
2022-12-19T12:35:56.312Z,27.40
2022-12-19T12:38:26.496Z,29.50
2022-12-19T12:41:56.886Z,29.83
2022-12-19T12:44:59.696Z,32.33
2022-12-19T12:48:02.561Z,33.85
2022-12-19T12:51:05.880Z,30.87
2022-12-19T12:54:12.464Z,33.30
2022-12-19T12:57:36.995Z,32.72
2022-12-19T13:00:39.961Z,26.02
2022-12-19T13:03:43.040Z,26.90
2022-12-19T13:06:51.913Z,37.30
2022-12-19T13:10:43.950Z,32.35
2022-12-19T13:13:58.113Z,27.33
2022-12-19T13:17:07.688Z,29.67
2022-12-19T13:20:12.179Z,30.10
2022-12-19T13:23:30.110Z,37.63
2022-12-19T13:26:49.334Z,31.85
2022-12-19T13:30:12.433Z,27.92
2022-12-19T13:33:16.341Z,34.05
2022-12-19T13:39:55.645Z,33.58
2022-12-19T13:40:32.273Z,25.70
2022-12-19T13:43:48.114Z,31.65
2022-12-19T13:46:50.968Z,25.17
2022-12-19T13:49:53.951Z,32.83
2022-12-19T13:52:57.164Z,25.37
2022-12-19T13:56:12.301Z,28.77
2022-12-19T13:59:15.140Z,32.85
2022-12-19T14:02:28.901Z,29.12
2022-12-19T14:06:16.850Z,30.62
2022-12-19T14:11:24.978Z,31.58
2022-12-19T14:13:40.195Z,31.23
2022-12-19T14:16:16.285Z,25.95
2022-12-19T14:19:21.761Z,32.53
2022-12-19T14:22:27.511Z,30.35
2022-12-19T14:28:21.196Z,26.90
2022-12-19T14:29:45.553Z,26.37
2022-12-19T14:33:46.159Z,33.42
2022-12-19T14:36:25.704Z,29.20
2022-12-19T14:39:35.276Z,31.05
2022-12-19T14:43:59.031Z,31.15
2022-12-19T14:51:51.586Z,26.90
2022-12-19T14:54:15.828Z,24.98
2022-12-19T14:54:26.486Z,30.35
2022-12-19T14:57:00.696Z,30.27
2022-12-19T15:01:07.174Z,32.55
2022-12-19T15:04:49.547Z,29.90
2022-12-19T15:07:19.801Z,28.77
2022-12-19T15:11:03.269Z,34.72
2022-12-19T15:14:51.087Z,31.90
2022-12-19T15:17:25.501Z,33.28
2022-12-19T15:20:28.383Z,30.83
2022-12-19T15:23:31.399Z,33.25
2022-12-19T15:26:36.066Z,35.08
2022-12-19T15:29:38.637Z,39.08
2022-12-19T15:32:41.799Z,28.10
2022-12-19T15:35:45.168Z,32.83
2022-12-19T15:38:48.071Z,37.97
2022-12-19T15:41:52.113Z,32.30
2022-12-19T15:45:00.096Z,39.13
2022-12-19T15:48:02.668Z,27.67
2022-12-19T15:51:05.744Z,34.30
2022-12-19T15:54:46.633Z,31.52
2022-12-19T15:57:33.888Z,37.13
2022-12-19T16:00:36.863Z,40.72
2022-12-19T16:03:40.227Z,31.83
2022-12-19T16:06:44.373Z,31.50
2022-12-19T16:09:48.122Z,35.67
2022-12-19T16:12:53.215Z,36.05
2022-12-19T16:15:57.859Z,38.03
2022-12-19T16:19:00.416Z,35.88
2022-12-19T16:22:15.378Z,35.03
2022-12-19T16:25:18.128Z,39.60
2022-12-19T16:28:30.881Z,35.05
2022-12-19T16:31:33.750Z,36.80
2022-12-19T16:34:36.611Z,31.58
2022-12-19T16:37:39.155Z,34.30
2022-12-19T16:40:42.730Z,31.55
2022-12-19T16:43:45.904Z,36.58
2022-12-19T16:46:51.390Z,36.45
2022-12-19T16:49:54.273Z,38.42
2022-12-19T16:52:57.372Z,29.57
2022-12-19T16:56:00.283Z,29.58
2022-12-19T16:59:08.501Z,36.17
2022-12-19T17:02:26.004Z,31.60
2022-12-19T17:05:30.893Z,34.00
2022-12-19T17:08:33.782Z,42.00
2022-12-19T17:11:36.672Z,31.37
2022-12-19T17:14:39.226Z,31.40
2022-12-19T17:17:42.078Z,32.85
2022-12-19T17:20:46.601Z,33.05
2022-12-19T17:23:50.205Z,28.40
2022-12-19T17:26:52.864Z,30.88
2022-12-19T17:29:55.912Z,31.35
2022-12-19T17:32:59.224Z,35.65
2022-12-19T17:36:03.672Z,31.05
2022-12-19T17:39:18.851Z,34.27
2022-12-19T17:42:24.052Z,36.90
2022-12-19T17:45:29.570Z,32.53
2022-12-19T17:48:33.416Z,27.20
2022-12-19T17:51:35.898Z,39.70
2022-12-19T17:54:38.825Z,28.80
2022-12-19T17:57:41.366Z,34.28
2022-12-19T18:00:44.948Z,39.88
2022-12-19T18:03:50.828Z,27.90
2022-12-19T18:06:53.638Z,34.15
2022-12-19T18:09:56.819Z,33.30
2022-12-19T18:12:59.385Z,43.28
2022-12-19T18:16:03.494Z,39.40
2022-12-19T18:19:06.423Z,25.45
2022-12-19T18:22:13.576Z,33.63
2022-12-19T18:25:22.423Z,37.57
2022-12-19T18:28:25.280Z,36.90
2022-12-19T18:31:28.045Z,29.98
2022-12-19T18:34:32.230Z,35.30
2022-12-19T18:37:34.689Z,33.90
2022-12-19T18:40:38.191Z,40.73
2022-12-19T18:43:40.965Z,36.03
2022-12-19T18:46:44.368Z,43.60
2022-12-19T18:49:48.316Z,34.03
2022-12-19T18:52:52.214Z,36.25
2022-12-19T18:55:55.639Z,44.20
2022-12-19T18:59:03.868Z,36.53
2022-12-19T19:02:24.172Z,32.92
2022-12-19T19:05:29.683Z,31.40
2022-12-19T19:08:34.286Z,37.33
2022-12-19T19:11:39.255Z,38.03
2022-12-19T19:14:42.236Z,37.05
2022-12-19T19:17:48.291Z,32.63
2022-12-19T19:20:55.727Z,40.85
2022-12-19T19:24:06.003Z,40.55
2022-12-19T19:27:08.506Z,49.97
2022-12-19T19:30:12.244Z,38.80
2022-12-19T19:33:21.758Z,39.17
2022-12-19T19:36:28.260Z,38.97
2022-12-19T19:39:32.659Z,46.65
2022-12-19T19:42:35.980Z,31.77
2022-12-19T19:45:43.265Z,43.45
2022-12-19T19:48:49.350Z,42.28
2022-12-19T19:51:55.631Z,41.03
2022-12-19T19:55:01.452Z,41.42
2022-12-19T19:58:04.267Z,41.93
2022-12-19T20:01:12.103Z,36.90
2022-12-19T20:04:15.287Z,40.30
2022-12-19T20:07:17.947Z,29.98
2022-12-19T20:10:21.113Z,34.50
2022-12-19T20:13:23.901Z,36.70
2022-12-19T20:16:26.848Z,37.70
2022-12-19T20:19:29.599Z,38.45
2022-12-19T20:22:35.456Z,42.40
2022-12-19T20:25:39.921Z,43.83
2022-12-19T20:28:48.400Z,40.27
2022-12-19T20:31:52.281Z,40.80
2022-12-19T20:34:55.490Z,49.33
2022-12-19T20:37:58.067Z,46.35
2022-12-19T20:41:01.213Z,41.78
2022-12-19T20:44:03.912Z,44.43
2022-12-19T20:47:06.942Z,43.65
2022-12-19T20:50:09.789Z,45.70
2022-12-19T20:53:12.697Z,43.50
2022-12-19T20:56:17.258Z,53.97
2022-12-19T20:59:20.329Z,43.10
2022-12-19T21:02:22.965Z,44.15
2022-12-19T21:05:26.005Z,40.50
2022-12-19T21:08:28.917Z,50.25
2022-12-19T21:11:32.020Z,45.10
2022-12-19T21:14:34.612Z,51.10
2022-12-19T21:17:37.849Z,49.83
2022-12-19T21:20:42.908Z,49.80
2022-12-19T21:23:45.933Z,47.67
2022-12-19T21:26:57.492Z,41.85
2022-12-19T21:30:01.018Z,47.37
2022-12-19T21:33:04.220Z,43.83
2022-12-19T21:36:08.624Z,45.00
2022-12-19T21:39:11.430Z,34.53
2022-12-19T21:42:14.462Z,51.00
2022-12-19T21:45:17.395Z,42.40
2022-12-19T21:48:20.273Z,39.90
2022-12-19T21:51:25.377Z,44.33
2022-12-19T21:54:28.241Z,47.80
2022-12-19T21:57:30.932Z,51.80
2022-12-19T22:00:35.691Z,50.53
2022-12-19T22:03:39.715Z,47.25
2022-12-19T22:06:42.282Z,48.83
2022-12-19T22:09:45.342Z,44.70
2022-12-19T22:12:48.331Z,40.10
2022-12-19T22:15:51.249Z,51.20
2022-12-19T22:18:55.005Z,45.30
2022-12-19T22:21:57.944Z,52.58
2022-12-19T22:25:00.521Z,48.58
2022-12-19T22:28:04.215Z,53.42
2022-12-19T22:31:24.308Z,45.50
2022-12-19T22:34:27.368Z,43.15
2022-12-19T22:37:30.077Z,43.63
2022-12-19T22:40:34.931Z,44.35
2022-12-19T22:43:38.974Z,48.20
2022-12-19T22:46:41.813Z,40.73
2022-12-19T22:49:44.532Z,49.45
2022-12-19T22:52:47.792Z,47.67
2022-12-19T22:55:50.386Z,45.72
2022-12-19T22:58:55.342Z,47.78
2022-12-19T23:01:58.219Z,40.13
2022-12-19T23:05:01.425Z,45.35
2022-12-19T23:08:04.424Z,42.33
2022-12-19T23:11:11.473Z,45.00
2022-12-19T23:14:15.997Z,47.13
2022-12-19T23:17:18.868Z,47.43
2022-12-19T23:20:21.379Z,43.53
2022-12-19T23:23:24.117Z,45.75
2022-12-19T23:26:27.905Z,52.80
2022-12-19T23:29:30.801Z,48.22
2022-12-19T23:32:33.522Z,46.03
2022-12-19T23:35:36.317Z,46.20
2022-12-19T23:38:39.051Z,53.97
2022-12-19T23:41:42.211Z,49.92
2022-12-19T23:44:44.988Z,46.28
2022-12-19T23:47:50.717Z,37.97
2022-12-19T23:51:17.572Z,47.53
2022-12-19T23:54:20.456Z,48.92
2022-12-19T23:57:22.936Z,47.85
